createdAt,value
2022-08-09T00:00:11.845Z,100.00
2022-08-09T00:02:49.167Z,100.00
2022-08-09T00:06:15.900Z,100.00
2022-08-09T00:08:09.651Z,100.00
2022-08-09T00:10:40.451Z,100.00
2022-08-09T00:13:17.603Z,100.00
2022-08-09T00:16:00.062Z,100.00
2022-08-09T00:18:34.772Z,100.00
2022-08-09T00:21:07.866Z,100.00
2022-08-09T00:23:57.829Z,100.00
2022-08-09T00:26:32.165Z,100.00
2022-08-09T00:29:01.230Z,100.00
2022-08-09T00:31:56.989Z,100.00
2022-08-09T00:34:15.295Z,100.00
2022-08-09T00:36:47.983Z,100.00
2022-08-09T00:40:01.779Z,100.00
2022-08-09T00:44:14.882Z,100.00
2022-08-09T00:44:49.099Z,100.00
2022-08-09T00:47:15.982Z,100.00
2022-08-09T00:49:43.864Z,100.00
2022-08-09T00:52:30.501Z,100.00
2022-08-09T00:55:02.107Z,100.00
2022-08-09T00:57:38.249Z,100.00
2022-08-09T01:00:21.363Z,100.00
2022-08-09T01:03:15.228Z,100.00
2022-08-09T01:06:13.942Z,100.00
2022-08-09T01:09:23.397Z,100.00
2022-08-09T01:12:06.573Z,100.00
2022-08-09T01:14:43.926Z,100.00
2022-08-09T01:17:22.611Z,100.00
2022-08-09T01:20:09.699Z,100.00
2022-08-09T01:22:55.050Z,100.00
2022-08-09T01:25:42.206Z,100.00
2022-08-09T01:28:16.907Z,100.00
2022-08-09T01:30:52.238Z,100.00
2022-08-09T01:33:24.114Z,100.00
2022-08-09T01:35:59.222Z,100.00
2022-08-09T01:38:30.024Z,100.00
2022-08-09T01:41:06.390Z,100.00
2022-08-09T01:43:42.105Z,100.00
2022-08-09T01:46:28.565Z,100.00
2022-08-09T01:49:09.603Z,100.00
2022-08-09T01:51:42.867Z,100.00
2022-08-09T01:54:13.877Z,100.00
2022-08-09T01:56:43.395Z,100.00
2022-08-09T01:59:20.257Z,100.00
2022-08-09T02:02:00.317Z,100.00
2022-08-09T02:04:29.737Z,100.00
2022-08-09T02:07:18.507Z,100.00
2022-08-09T02:10:04.170Z,100.00
2022-08-09T02:12:35.358Z,100.00
2022-08-09T02:15:06.448Z,100.00
2022-08-09T02:18:00.534Z,100.00
2022-08-09T02:20:25.230Z,100.00
2022-08-09T02:23:08.222Z,100.00
2022-08-09T02:25:42.173Z,100.00
2022-08-09T02:28:12.466Z,100.00
2022-08-09T02:30:51.722Z,100.00
2022-08-09T02:33:58.117Z,100.00
2022-08-09T02:36:20.021Z,100.00
2022-08-09T02:38:53.011Z,100.00
2022-08-09T02:41:28.485Z,100.00
2022-08-09T02:44:01.519Z,100.00
2022-08-09T02:46:38.550Z,100.00
2022-08-09T02:49:12.620Z,100.00
2022-08-09T02:51:41.870Z,100.00
2022-08-09T02:54:13.790Z,100.00
2022-08-09T02:56:51.287Z,100.00
2022-08-09T02:59:26.523Z,100.00
2022-08-09T03:02:07.107Z,100.00
2022-08-09T03:04:40.848Z,100.00
2022-08-09T03:07:13.837Z,100.00
2022-08-09T03:09:43.434Z,100.00
2022-08-09T03:12:23.707Z,100.00
2022-08-09T03:14:51.761Z,100.00
2022-08-09T03:17:20.542Z,100.00
2022-08-09T03:20:02.751Z,100.00
2022-08-09T03:22:33.320Z,100.00
2022-08-09T03:25:21.876Z,100.00
2022-08-09T03:27:57.724Z,100.00
2022-08-09T03:30:33.685Z,100.00
2022-08-09T03:33:17.288Z,100.00
2022-08-09T03:36:12.258Z,100.00
2022-08-09T03:38:41.919Z,100.00
2022-08-09T03:41:15.519Z,100.00
2022-08-09T03:44:03.060Z,100.00
2022-08-09T03:46:31.443Z,100.00
2022-08-09T03:49:03.745Z,100.00
2022-08-09T03:51:56.869Z,100.00
2022-08-09T03:54:29.241Z,100.00
2022-08-09T03:56:59.830Z,100.00
2022-08-09T03:59:43.174Z,100.00
2022-08-09T04:02:14.560Z,100.00
2022-08-09T04:04:45.675Z,100.00
2022-08-09T04:07:13.216Z,100.00
2022-08-09T04:09:42.167Z,100.00
2022-08-09T04:12:30.842Z,100.00
2022-08-09T04:15:11.433Z,100.00
2022-08-09T04:17:44.428Z,100.00
2022-08-09T04:20:15.693Z,100.00
2022-08-09T04:22:44.448Z,100.00
2022-08-09T04:25:13.170Z,100.00
2022-08-09T04:27:46.795Z,100.00
2022-08-09T04:30:20.965Z,100.00
2022-08-09T04:32:51.656Z,100.00
2022-08-09T04:35:21.596Z,100.00
2022-08-09T04:37:49.833Z,100.00
2022-08-09T04:40:28.739Z,100.00
2022-08-09T04:43:03.753Z,100.00
2022-08-09T04:45:31.045Z,100.00
2022-08-09T04:48:07.949Z,100.00
2022-08-09T04:50:38.093Z,100.00
2022-08-09T04:53:11.569Z,100.00
2022-08-09T04:55:59.053Z,100.00
2022-08-09T04:58:32.822Z,100.00
2022-08-09T05:01:00.712Z,100.00
2022-08-09T05:03:41.305Z,100.00
2022-08-09T05:06:26.728Z,100.00
2022-08-09T05:09:00.027Z,100.00
2022-08-09T05:11:32.213Z,100.00
2022-08-09T05:14:06.717Z,100.00
2022-08-09T05:16:58.506Z,100.00
2022-08-09T05:19:25.786Z,100.00
2022-08-09T05:21:55.406Z,100.00
2022-08-09T05:24:24.306Z,100.00
2022-08-09T05:26:51.822Z,100.00
2022-08-09T05:29:23.961Z,100.00
2022-08-09T05:31:57.691Z,100.00
2022-08-09T05:34:31.485Z,100.00
2022-08-09T05:37:06.104Z,100.00
2022-08-09T05:39:43.867Z,100.00
2022-08-09T05:42:21.250Z,100.00
2022-08-09T05:44:50.867Z,100.00
2022-08-09T05:47:19.237Z,100.00
2022-08-09T05:50:31.138Z,100.00
2022-08-09T05:52:33.059Z,100.00
2022-08-09T05:55:06.973Z,100.00
2022-08-09T05:57:55.469Z,100.00
2022-08-09T06:00:23.288Z,100.00
2022-08-09T06:02:54.150Z,100.00
2022-08-09T06:05:50.616Z,100.00
2022-08-09T06:08:09.015Z,100.00
2022-08-09T06:10:40.503Z,100.00
2022-08-09T06:13:12.214Z,100.00
2022-08-09T06:15:46.777Z,100.00
2022-08-09T06:18:14.825Z,100.00
2022-08-09T06:20:43.110Z,100.00
2022-08-09T06:23:21.337Z,100.00
2022-08-09T06:25:49.713Z,100.00
2022-08-09T06:28:22.206Z,100.00
2022-08-09T06:30:54.309Z,100.00
2022-08-09T06:33:41.303Z,100.00
2022-08-09T06:36:09.531Z,100.00
2022-08-09T06:38:47.278Z,100.00
2022-08-09T06:41:18.949Z,100.00
2022-08-09T06:43:46.878Z,100.00
2022-08-09T06:46:40.069Z,100.00
2022-08-09T06:49:01.024Z,100.00
2022-08-09T06:51:28.338Z,100.00
2022-08-09T06:53:56.059Z,100.00
2022-08-09T06:56:31.057Z,100.00
2022-08-09T07:00:51.562Z,100.00
2022-08-09T07:01:54.805Z,100.00
2022-08-09T07:04:27.052Z,100.00
2022-08-09T07:07:00.066Z,100.00
2022-08-09T07:09:56.439Z,100.00
2022-08-09T07:12:18.249Z,100.00
2022-08-09T07:14:50.757Z,100.00
2022-08-09T07:17:19.965Z,100.00
2022-08-09T07:19:47.908Z,100.00
2022-08-09T07:22:18.184Z,100.00
2022-08-09T07:24:49.387Z,100.00
2022-08-09T07:27:33.651Z,100.00
2022-08-09T07:30:02.667Z,100.00
2022-08-09T07:32:33.715Z,100.00
2022-08-09T07:35:10.376Z,100.00
2022-08-09T07:37:43.727Z,100.00
2022-08-09T07:40:17.534Z,100.00
2022-08-09T07:43:03.747Z,100.00
2022-08-09T07:45:41.524Z,100.00
2022-08-09T07:48:25.908Z,100.00
2022-08-09T07:51:09.460Z,100.00
2022-08-09T07:54:05.566Z,100.00
2022-08-09T07:56:34.595Z,100.00
2022-08-09T07:59:12.320Z,100.00
2022-08-09T08:05:17.598Z,100.00
2022-08-09T08:08:43.724Z,100.00
2022-08-09T08:10:34.837Z,100.00
2022-08-09T08:15:57.752Z,100.00
2022-08-09T08:17:35.533Z,100.00
2022-08-09T08:18:26.088Z,100.00
2022-08-09T08:20:53.582Z,100.00
2022-08-09T08:23:20.965Z,100.00
2022-08-09T08:26:06.224Z,100.00
2022-08-09T08:28:35.385Z,100.00
2022-08-09T08:31:13.847Z,100.00
2022-08-09T08:33:52.652Z,100.00
2022-08-09T08:40:15.990Z,100.00
2022-08-09T08:42:47.353Z,100.00
2022-08-09T08:45:51.567Z,100.00
2022-08-09T08:48:29.107Z,100.00
2022-08-09T08:50:58.906Z,100.00
2022-08-09T08:53:36.966Z,100.00
2022-08-09T08:56:16.834Z,100.00
2022-08-09T08:58:56.504Z,100.00
2022-08-09T09:01:44.796Z,100.00
2022-08-09T09:04:27.099Z,100.00
2022-08-09T09:06:58.149Z,100.00
2022-08-09T09:10:01.791Z,100.00
2022-08-09T09:12:17.005Z,100.00
2022-08-09T09:14:48.081Z,100.00
2022-08-09T09:17:16.599Z,100.00
2022-08-09T09:20:29.199Z,100.00
2022-08-09T09:23:14.078Z,100.00
2022-08-09T09:29:02.334Z,100.00
2022-08-09T09:32:06.241Z,100.00
2022-08-09T09:34:18.442Z,100.00
2022-08-09T09:36:52.983Z,100.00
2022-08-09T09:39:42.825Z,100.00
2022-08-09T09:42:26.049Z,94.95
2022-08-09T09:45:05.944Z,88.90
2022-08-09T09:47:42.168Z,82.46
2022-08-09T09:50:39.588Z,81.83
2022-08-09T09:53:18.488Z,76.83
2022-08-09T09:56:05.311Z,72.52
2022-08-09T09:58:48.060Z,70.34
2022-08-09T10:01:31.153Z,76.81
2022-08-09T10:04:12.803Z,76.21
2022-08-09T10:06:47.114Z,73.44
2022-08-09T10:09:22.438Z,73.77
2022-08-09T10:12:14.423Z,73.97
2022-08-09T10:14:49.457Z,73.08
2022-08-09T10:17:40.649Z,73.40
2022-08-09T10:20:15.271Z,73.72
2022-08-09T10:22:42.291Z,70.73
2022-08-09T10:25:12.419Z,70.06
2022-08-09T10:27:56.994Z,73.81
2022-08-09T10:34:05.203Z,76.16
2022-08-09T10:36:05.350Z,76.65
2022-08-09T10:38:55.882Z,85.33
2022-08-09T10:41:24.183Z,85.24
2022-08-09T10:43:59.185Z,84.13
2022-08-09T10:46:57.613Z,79.71
2022-08-09T10:49:51.849Z,79.90
2022-08-09T10:52:42.893Z,80.67
2022-08-09T10:55:28.003Z,76.85
2022-08-09T10:58:00.303Z,75.39
2022-08-09T11:03:01.757Z,74.67
2022-08-09T11:03:49.773Z,80.33
2022-08-09T11:06:22.927Z,83.12
2022-08-09T11:08:52.996Z,87.33
2022-08-09T11:11:21.331Z,85.96
2022-08-09T11:14:28.390Z,83.19
2022-08-09T11:16:57.203Z,81.51
2022-08-09T11:20:11.888Z,82.51
2022-08-09T11:22:55.578Z,81.45
2022-08-09T11:25:44.667Z,79.50
2022-08-09T11:28:30.768Z,75.67
2022-08-09T11:31:43.102Z,74.49
2022-08-09T11:34:25.018Z,72.49
2022-08-09T11:36:52.825Z,71.06
2022-08-09T11:39:19.580Z,73.36
2022-08-09T11:41:47.049Z,74.47
2022-08-09T11:44:15.862Z,72.36
2022-08-09T11:46:59.690Z,74.57
2022-08-09T11:50:55.374Z,75.83
2022-08-09T11:53:15.403Z,75.00
2022-08-09T11:55:53.601Z,74.11
2022-08-09T11:58:32.356Z,74.17
2022-08-09T12:01:37.203Z,71.36
2022-08-09T12:04:01.172Z,67.48
2022-08-09T12:06:32.052Z,66.75
2022-08-09T12:09:01.332Z,64.68
2022-08-09T12:11:30.215Z,62.98
2022-08-09T12:14:28.527Z,65.38
2022-08-09T12:16:58.658Z,63.60
2022-08-09T12:19:32.382Z,67.50
2022-08-09T12:22:03.199Z,64.66
2022-08-09T12:24:29.939Z,63.66
2022-08-09T12:29:00.101Z,64.94
2022-08-09T12:30:01.930Z,68.62
2022-08-09T12:32:44.216Z,68.99
2022-08-09T12:35:13.329Z,67.45
2022-08-09T12:37:50.014Z,67.28
2022-08-09T12:40:21.390Z,66.96
2022-08-09T12:42:51.375Z,67.80
2022-08-09T12:45:34.178Z,67.41
2022-08-09T12:48:11.022Z,68.04
2022-08-09T12:50:51.945Z,68.13
2022-08-09T12:53:34.994Z,71.33
2022-08-09T12:56:39.964Z,73.91
2022-08-09T12:59:06.103Z,81.48
2022-08-09T13:01:33.120Z,86.14
2022-08-09T13:04:33.170Z,88.80
2022-08-09T13:06:58.002Z,89.56
2022-08-09T13:09:30.501Z,90.26
2022-08-09T13:12:03.707Z,91.95
2022-08-09T13:14:40.565Z,90.79
2022-08-09T13:17:43.957Z,91.41
2022-08-09T13:20:14.422Z,90.79
2022-08-09T13:23:00.946Z,89.90
2022-08-09T13:25:54.758Z,86.05
2022-08-09T13:28:33.901Z,82.59
2022-08-09T13:32:14.908Z,77.57
2022-08-09T13:33:58.844Z,81.57
2022-08-09T13:36:41.414Z,78.12
2022-08-09T13:39:34.108Z,80.35
2022-08-09T13:42:04.424Z,79.32
2022-08-09T13:44:33.748Z,77.79
2022-08-09T13:47:29.827Z,76.72
2022-08-09T13:49:57.387Z,79.86
2022-08-09T13:52:28.137Z,77.00
2022-08-09T13:55:00.139Z,78.68
2022-08-09T13:57:35.769Z,79.96
2022-08-09T14:00:07.625Z,78.30
2022-08-09T14:02:42.186Z,76.14
2022-08-09T14:05:58.910Z,84.08
2022-08-09T14:08:08.551Z,79.29
2022-08-09T14:10:49.145Z,78.50
2022-08-09T14:13:28.120Z,75.24
2022-08-09T14:16:10.956Z,76.18
2022-08-09T14:18:43.166Z,76.96
2022-08-09T14:21:17.543Z,76.71
2022-08-09T14:23:54.642Z,73.50
2022-08-09T14:26:33.869Z,67.06
2022-08-09T14:29:08.174Z,64.01
2022-08-09T14:31:54.236Z,63.76
2022-08-09T14:34:31.423Z,63.38
2022-08-09T14:37:06.433Z,63.72
2022-08-09T14:39:45.717Z,63.13
2022-08-09T14:42:40.720Z,63.02
2022-08-09T14:46:39.402Z,62.21
2022-08-09T14:47:58.369Z,62.12
2022-08-09T14:50:31.696Z,62.71
2022-08-09T14:53:01.129Z,61.85
2022-08-09T14:55:29.311Z,62.02
2022-08-09T14:58:04.710Z,62.13
2022-08-09T15:00:36.613Z,62.87
2022-08-09T15:03:08.774Z,62.81
2022-08-09T15:05:40.343Z,63.28
2022-08-09T15:08:19.444Z,64.47
2022-08-09T15:11:01.182Z,64.49
2022-08-09T15:13:48.305Z,64.13
2022-08-09T15:16:18.839Z,63.48
2022-08-09T15:18:49.021Z,63.96
2022-08-09T15:21:57.001Z,64.90
2022-08-09T15:24:12.171Z,65.04
2022-08-09T15:26:45.205Z,65.34
2022-08-09T15:30:57.215Z,64.80
2022-08-09T15:32:00.417Z,63.52
2022-08-09T15:34:33.930Z,63.05
2022-08-09T15:37:04.349Z,63.24
2022-08-09T15:39:49.927Z,63.88
2022-08-09T15:42:19.174Z,64.38
2022-08-09T15:44:46.561Z,63.35
2022-08-09T15:47:14.290Z,64.91
2022-08-09T15:50:04.287Z,63.36
2022-08-09T15:52:33.711Z,64.13
2022-08-09T15:55:01.069Z,64.67
2022-08-09T15:57:35.778Z,65.64
2022-08-09T16:00:24.369Z,65.44
2022-08-09T16:02:54.829Z,65.44
2022-08-09T16:05:26.782Z,65.31
2022-08-09T16:08:24.767Z,66.93
2022-08-09T16:10:58.663Z,66.44
2022-08-09T16:14:03.053Z,66.89
2022-08-09T16:16:18.679Z,65.35
2022-08-09T16:18:46.113Z,64.55
2022-08-09T16:21:25.530Z,64.31
2022-08-09T16:23:58.663Z,66.19
2022-08-09T16:26:34.745Z,65.78
2022-08-09T16:29:10.560Z,63.48
2022-08-09T16:32:17.854Z,63.31
2022-08-09T16:34:55.703Z,61.91
2022-08-09T16:37:53.178Z,63.34
2022-08-09T16:40:08.838Z,63.48
2022-08-09T16:42:36.307Z,63.61
2022-08-09T16:45:05.347Z,61.43
2022-08-09T16:48:42.025Z,62.04
2022-08-09T16:50:33.051Z,60.50
2022-08-09T16:53:02.006Z,60.46
2022-08-09T16:55:31.516Z,59.96
2022-08-09T16:58:17.015Z,59.79
2022-08-09T17:00:43.949Z,60.03
2022-08-09T17:03:22.129Z,60.02
2022-08-09T17:06:07.859Z,60.23
2022-08-09T17:09:01.834Z,60.65
2022-08-09T17:11:40.655Z,61.70
2022-08-09T17:14:08.985Z,61.33
2022-08-09T17:16:52.401Z,60.05
2022-08-09T17:19:20.889Z,61.04
2022-08-09T17:21:47.912Z,60.99
2022-08-09T17:24:30.522Z,61.14
2022-08-09T17:26:58.474Z,60.68
2022-08-09T17:29:31.745Z,60.49
2022-08-09T17:32:05.289Z,61.18
2022-08-09T17:35:10.892Z,60.97
2022-08-09T17:37:24.847Z,60.53
2022-08-09T17:39:56.726Z,60.96
2022-08-09T17:42:41.066Z,61.52
2022-08-09T17:45:27.333Z,60.60
2022-08-09T17:48:05.192Z,61.73
2022-08-09T17:50:37.080Z,60.06
2022-08-09T17:53:19.765Z,61.03
2022-08-09T17:55:54.132Z,60.13
2022-08-09T17:58:26.711Z,60.99
2022-08-09T18:00:56.742Z,60.14
2022-08-09T18:03:26.032Z,60.51
2022-08-09T18:05:57.285Z,59.70
2022-08-09T18:08:27.994Z,60.29
2022-08-09T18:11:01.600Z,59.35
2022-08-09T18:13:43.614Z,60.53
2022-08-09T18:16:28.734Z,60.36
2022-08-09T18:18:56.544Z,60.25
2022-08-09T18:21:24.358Z,59.89
2022-08-09T18:24:10.661Z,59.06
2022-08-09T18:26:46.623Z,58.26
2022-08-09T18:30:38.039Z,56.35
2022-08-09T18:32:07.402Z,56.57
2022-08-09T18:34:35.687Z,55.86
2022-08-09T18:37:04.119Z,55.82
2022-08-09T18:39:32.490Z,57.16
2022-08-09T18:42:08.011Z,57.09
2022-08-09T18:44:35.379Z,56.79
2022-08-09T18:47:07.337Z,57.60
2022-08-09T18:49:43.048Z,56.71
2022-08-09T18:52:13.508Z,56.27
2022-08-09T18:54:49.586Z,57.52
2022-08-09T18:57:22.143Z,57.93
2022-08-09T18:59:56.382Z,58.41
2022-08-09T19:02:31.925Z,58.81
2022-08-09T19:05:14.684Z,59.65
2022-08-09T19:07:59.393Z,59.50
2022-08-09T19:10:37.309Z,59.23
2022-08-09T19:13:20.838Z,59.97
2022-08-09T19:15:52.563Z,60.13
2022-08-09T19:18:34.043Z,59.95
2022-08-09T19:21:10.618Z,59.98
2022-08-09T19:24:36.558Z,60.21
2022-08-09T19:26:31.069Z,60.54
2022-08-09T19:29:01.910Z,60.39
2022-08-09T19:31:44.049Z,59.60
2022-08-09T19:34:21.552Z,60.00
2022-08-09T19:36:51.082Z,60.05
2022-08-09T19:39:20.389Z,60.44
2022-08-09T19:41:56.322Z,60.27
2022-08-09T19:44:23.386Z,59.69
2022-08-09T19:46:53.520Z,59.99
2022-08-09T19:50:07.769Z,60.68
2022-08-09T19:52:08.743Z,60.86
2022-08-09T19:54:35.829Z,61.25
2022-08-09T19:57:02.656Z,63.50
2022-08-09T19:59:58.047Z,62.88
2022-08-09T20:04:08.155Z,65.16
2022-08-09T20:05:10.323Z,66.95
2022-08-09T20:07:58.935Z,69.53
2022-08-09T20:10:34.879Z,68.97
2022-08-09T20:13:05.414Z,67.13
2022-08-09T20:16:38.240Z,67.93
2022-08-09T20:18:22.320Z,67.11
2022-08-09T20:20:51.056Z,67.00
2022-08-09T20:23:21.114Z,66.73
2022-08-09T20:25:52.079Z,66.65
2022-08-09T20:28:34.166Z,66.69
2022-08-09T20:31:04.594Z,67.57
2022-08-09T20:33:41.235Z,67.79
2022-08-09T20:36:11.151Z,69.49
2022-08-09T20:39:28.366Z,69.62
2022-08-09T20:41:35.060Z,70.44
2022-08-09T20:44:06.910Z,72.61
2022-08-09T20:46:43.302Z,74.91
2022-08-09T20:49:16.020Z,77.27
2022-08-09T20:51:44.252Z,81.02
2022-08-09T20:54:16.448Z,82.61
2022-08-09T20:56:53.626Z,85.77
2022-08-09T20:59:50.103Z,85.90
2022-08-09T21:02:10.806Z,86.11
2022-08-09T21:05:57.881Z,86.64
2022-08-09T21:07:38.498Z,88.37
2022-08-09T21:10:07.627Z,89.27
2022-08-09T21:12:37.066Z,92.86
2022-08-09T21:15:04.717Z,92.53
2022-08-09T21:18:20.691Z,90.59
2022-08-09T21:20:25.829Z,92.26
2022-08-09T21:22:54.105Z,92.49
2022-08-09T21:25:44.326Z,93.52
2022-08-09T21:28:34.675Z,95.51
2022-08-09T21:31:16.355Z,97.21
2022-08-09T21:33:46.042Z,90.43
2022-08-09T21:36:18.429Z,89.67
2022-08-09T21:38:51.087Z,90.10
2022-08-09T21:41:25.533Z,94.22
2022-08-09T21:44:10.761Z,96.74
2022-08-09T21:46:37.590Z,96.07
2022-08-09T21:49:04.312Z,94.81
2022-08-09T21:51:36.345Z,92.68
2022-08-09T21:54:12.042Z,97.26
2022-08-09T21:56:44.761Z,94.42
2022-08-09T21:59:25.551Z,98.10
2022-08-09T22:01:59.030Z,97.28
2022-08-09T22:04:55.074Z,96.97
2022-08-09T22:07:35.130Z,99.64
2022-08-09T22:10:04.549Z,99.66
2022-08-09T22:12:31.974Z,98.28
2022-08-09T22:14:58.998Z,99.85
2022-08-09T22:17:25.866Z,100.00
2022-08-09T22:19:58.617Z,100.00
2022-08-09T22:22:27.839Z,100.00
2022-08-09T22:26:08.137Z,100.00
2022-08-09T22:27:41.214Z,100.00
2022-08-09T22:30:14.473Z,100.00
2022-08-09T22:32:41.814Z,100.00
2022-08-09T22:36:01.247Z,100.00
2022-08-09T22:38:03.320Z,100.00
2022-08-09T22:40:34.435Z,100.00
2022-08-09T22:43:01.222Z,100.00
2022-08-09T22:48:12.379Z,100.00
2022-08-09T22:48:36.284Z,100.00
2022-08-09T22:51:10.773Z,100.00
2022-08-09T22:54:02.473Z,100.00
2022-08-09T22:56:34.308Z,100.00
2022-08-09T22:59:57.014Z,100.00
2022-08-09T23:01:52.374Z,100.00
2022-08-09T23:04:19.629Z,100.00
2022-08-09T23:07:11.322Z,100.00
2022-08-09T23:09:41.144Z,100.00
2022-08-09T23:12:08.088Z,100.00
2022-08-09T23:14:42.256Z,100.00
2022-08-09T23:17:10.449Z,100.00
2022-08-09T23:20:06.903Z,100.00
2022-08-09T23:22:24.413Z,100.00
2022-08-09T23:24:51.172Z,100.00
2022-08-09T23:27:17.845Z,100.00
2022-08-09T23:29:44.876Z,100.00
2022-08-09T23:32:11.724Z,100.00
2022-08-09T23:34:38.552Z,100.00
2022-08-09T23:37:05.680Z,100.00
2022-08-09T23:39:32.824Z,100.00
2022-08-09T23:41:59.684Z,100.00
2022-08-09T23:44:26.529Z,100.00
2022-08-09T23:46:57.420Z,100.00
2022-08-09T23:49:25.962Z,100.00
2022-08-09T23:51:53.391Z,100.00
2022-08-09T23:54:24.419Z,100.00
2022-08-09T23:56:55.830Z,100.00
2022-08-09T23:59:24.520Z,100.00
